86NC weather

Craig Craft Airport
Hertford, North Carolina, United States

Public forecast

Using degrees Fahrenheit for public forecast. Weather courtesy of forecast.io.

Closest aviation weather report (METAR) to Craig Craft Airport

Closest report is Northeastern Regional Airport, 14.6 nm (27.1 km) SSW. Retrieved 2019/10/16 10:35 UTC (0 seconds ago):

KEDE 161035Z AUTO 12004KT 10SM -RA BKN029 BKN060 BKN120 21/19 A2988 RMK AO2 T02110191

Closest aviation forecast (TAF) to Craig Craft Airport

Closest forecast is Elizabeth City Regional Airport & Coast Guard Air Station, 15.4 nm (28.6 km) E. Retrieved 2019/10/16 06:33 UTC (4 hours ago):

TAF KECG 160529Z 1606/1706 VRB03KT P6SM BKN250 FM161400 15010KT 6SM -SHRA OVC060 FM161900 18014KT 6SM SHRA OVC010 FM162100 24012G19KT P6SM OVC010 FM170200 29014G23KT P6SM FEW090